createdAt,value
2023-03-10T00:00:23.655Z,10.80
2023-03-10T00:02:50.496Z,10.80
2023-03-10T00:05:19.020Z,10.90
2023-03-10T00:07:47.023Z,11.10
2023-03-10T00:10:16.478Z,11.00
2023-03-10T00:12:43.886Z,11.00
2023-03-10T00:15:11.802Z,11.10
2023-03-10T00:17:38.848Z,11.00
2023-03-10T00:20:08.028Z,11.10
2023-03-10T00:22:35.549Z,10.90
2023-03-10T00:25:02.322Z,11.00
2023-03-10T00:27:29.134Z,10.90
2023-03-10T00:29:56.145Z,10.80
2023-03-10T00:32:22.892Z,10.80
2023-03-10T00:34:49.639Z,10.80
2023-03-10T00:37:16.633Z,10.70
2023-03-10T00:39:43.457Z,10.70
2023-03-10T00:42:10.529Z,10.60
2023-03-10T00:44:38.447Z,10.60
2023-03-10T00:47:05.177Z,10.60
2023-03-10T00:49:31.839Z,10.60
2023-03-10T00:51:58.628Z,10.60
2023-03-10T00:54:25.286Z,10.60
2023-03-10T00:56:51.938Z,10.60
2023-03-10T00:59:18.608Z,10.50
2023-03-10T01:01:45.296Z,10.50
2023-03-10T01:04:15.555Z,10.50
2023-03-10T01:06:44.508Z,10.50
2023-03-10T01:09:11.350Z,10.50
2023-03-10T01:11:38.011Z,10.40
2023-03-10T01:14:07.300Z,10.40
2023-03-10T01:16:34.643Z,10.30
2023-03-10T01:19:01.448Z,10.30
2023-03-10T01:21:30.942Z,10.30
2023-03-10T01:23:57.656Z,10.30
2023-03-10T01:26:24.372Z,10.40
2023-03-10T01:28:51.086Z,10.40
2023-03-10T01:31:18.378Z,10.50
2023-03-10T01:33:45.702Z,10.50
2023-03-10T01:36:15.952Z,10.50
2023-03-10T01:38:43.328Z,10.50
2023-03-10T01:41:10.787Z,10.50
2023-03-10T01:43:43.138Z,10.40
2023-03-10T01:46:31.722Z,10.40
2023-03-10T01:49:07.591Z,10.40
2023-03-10T01:51:36.716Z,10.40
2023-03-10T01:54:09.360Z,10.40
2023-03-10T01:56:37.617Z,10.40
2023-03-10T01:59:04.515Z,10.40
2023-03-10T02:01:32.221Z,10.40
2023-03-10T02:04:15.861Z,10.50
2023-03-10T02:06:45.034Z,10.40
2023-03-10T02:09:13.211Z,10.40
2023-03-10T02:11:40.245Z,10.40
2023-03-10T02:14:07.097Z,10.40
2023-03-10T02:16:35.026Z,10.40
2023-03-10T02:19:04.338Z,10.40
2023-03-10T02:21:45.590Z,10.40
2023-03-10T02:24:21.521Z,10.40
2023-03-10T02:26:56.910Z,10.40
2023-03-10T02:29:38.352Z,10.40
2023-03-10T02:32:11.250Z,10.30
2023-03-10T02:34:38.459Z,10.30
2023-03-10T02:37:05.524Z,10.30
2023-03-10T02:39:32.297Z,10.30
2023-03-10T02:41:58.976Z,10.40
2023-03-10T02:44:26.747Z,10.30
2023-03-10T02:46:53.487Z,10.30
2023-03-10T02:49:23.422Z,10.30
2023-03-10T02:51:50.436Z,10.30
2023-03-10T02:54:17.248Z,10.30
2023-03-10T02:56:45.462Z,10.30
2023-03-10T02:59:12.942Z,10.30
2023-03-10T03:01:39.624Z,10.30
2023-03-10T03:04:06.751Z,10.20
2023-03-10T03:06:33.578Z,10.20
2023-03-10T03:09:00.302Z,10.20
2023-03-10T03:11:27.096Z,10.20
2023-03-10T03:13:53.853Z,10.20
2023-03-10T03:16:20.579Z,10.20
2023-03-10T03:18:47.259Z,10.10
2023-03-10T03:21:18.104Z,10.10
2023-03-10T03:23:46.215Z,10.10
2023-03-10T03:26:24.144Z,10.10
2023-03-10T03:28:52.111Z,10.10
2023-03-10T03:31:22.444Z,10.10
2023-03-10T03:33:49.445Z,10.10
2023-03-10T03:36:16.232Z,10.10
2023-03-10T03:38:42.883Z,10.10
2023-03-10T03:41:10.241Z,10.10
2023-03-10T03:43:37.009Z,10.10
2023-03-10T03:46:04.476Z,10.10
2023-03-10T03:48:31.389Z,10.10
2023-03-10T03:50:58.094Z,10.10
2023-03-10T03:53:24.810Z,10.10
2023-03-10T03:55:51.591Z,10.10
2023-03-10T03:58:19.110Z,10.10
2023-03-10T04:00:45.808Z,10.10
2023-03-10T04:03:12.550Z,10.10
2023-03-10T04:05:39.538Z,10.10
2023-03-10T04:08:06.794Z,10.00
2023-03-10T04:10:33.728Z,10.00
2023-03-10T04:13:00.441Z,10.10
2023-03-10T04:15:27.469Z,10.10
2023-03-10T04:17:54.156Z,10.10
2023-03-10T04:20:20.902Z,10.00
2023-03-10T04:22:47.549Z,10.10
2023-03-10T04:25:14.265Z,10.10
2023-03-10T04:27:41.050Z,10.10
2023-03-10T04:30:09.017Z,10.10
2023-03-10T04:32:35.813Z,10.10
2023-03-10T04:35:02.554Z,10.10
2023-03-10T04:37:29.241Z,10.10
2023-03-10T04:39:57.111Z,10.10
2023-03-10T04:42:26.588Z,10.10
2023-03-10T04:44:53.442Z,10.10
2023-03-10T04:47:20.146Z,10.10
2023-03-10T04:49:46.857Z,10.10
2023-03-10T04:52:14.432Z,10.10
2023-03-10T04:54:41.443Z,10.10
2023-03-10T04:57:08.113Z,10.00
2023-03-10T04:59:34.878Z,10.00
2023-03-10T05:02:01.604Z,10.00
2023-03-10T05:04:28.386Z,10.00
2023-03-10T05:06:55.050Z,10.00
2023-03-10T05:09:21.726Z,10.00
2023-03-10T05:11:48.406Z,10.00
2023-03-10T05:14:15.335Z,10.00
2023-03-10T05:16:42.325Z,10.00
2023-03-10T05:19:09.129Z,10.00
2023-03-10T05:21:36.491Z,9.90
2023-03-10T05:24:03.138Z,9.90
2023-03-10T05:26:32.735Z,9.80
2023-03-10T05:29:00.980Z,9.80
2023-03-10T05:31:27.781Z,9.70
2023-03-10T05:33:54.637Z,9.70
2023-03-10T05:36:22.073Z,9.70
2023-03-10T05:38:49.314Z,9.60
2023-03-10T05:41:16.591Z,9.60
2023-03-10T05:43:43.313Z,9.60
2023-03-10T05:46:10.859Z,9.50
2023-03-10T05:48:37.777Z,9.50
2023-03-10T05:51:07.616Z,9.60
2023-03-10T05:53:35.819Z,9.50
2023-03-10T05:56:08.638Z,9.60
2023-03-10T05:58:35.745Z,9.70
2023-03-10T06:01:02.921Z,9.60
2023-03-10T06:03:30.245Z,9.70
2023-03-10T06:05:58.299Z,9.70
2023-03-10T06:08:27.998Z,9.70
2023-03-10T06:10:55.173Z,9.70
2023-03-10T06:13:22.385Z,9.70
2023-03-10T06:15:53.729Z,9.70
2023-03-10T06:18:20.940Z,9.70
2023-03-10T06:20:48.836Z,9.70
2023-03-10T06:23:16.648Z,9.70
2023-03-10T06:25:44.167Z,9.70
2023-03-10T06:28:11.679Z,9.70
2023-03-10T06:30:38.861Z,9.70
2023-03-10T06:33:05.618Z,9.70
2023-03-10T06:35:32.552Z,9.70
2023-03-10T06:37:59.208Z,9.70
2023-03-10T06:40:26.023Z,9.80
2023-03-10T06:42:52.664Z,9.80
2023-03-10T06:45:19.474Z,9.80
2023-03-10T06:47:46.181Z,9.80
2023-03-10T06:50:13.908Z,9.90
2023-03-10T06:52:42.722Z,9.90
2023-03-10T06:55:10.896Z,10.00
2023-03-10T06:57:37.969Z,10.00
2023-03-10T07:00:08.027Z,10.00
2023-03-10T07:02:34.792Z,10.00
2023-03-10T07:05:01.515Z,10.00
2023-03-10T07:07:28.260Z,10.00
2023-03-10T07:09:55.228Z,10.10
2023-03-10T07:12:22.353Z,10.10
2023-03-10T07:14:48.968Z,10.10
2023-03-10T07:17:15.680Z,10.10
2023-03-10T07:19:42.490Z,10.10
2023-03-10T07:22:11.264Z,10.10
2023-03-10T07:24:38.398Z,10.10
2023-03-10T07:27:05.566Z,10.20
2023-03-10T07:29:32.189Z,10.10
2023-03-10T07:31:58.888Z,10.10
2023-03-10T07:34:25.724Z,10.10
2023-03-10T07:36:52.392Z,10.20
2023-03-10T07:39:19.139Z,10.20
2023-03-10T07:41:45.885Z,10.20
2023-03-10T07:44:12.925Z,10.20
2023-03-10T07:46:39.686Z,10.30
2023-03-10T07:49:06.703Z,10.30
2023-03-10T07:51:33.472Z,10.40
2023-03-10T07:54:00.340Z,10.40
2023-03-10T07:56:27.273Z,10.50
2023-03-10T07:58:53.978Z,10.50
2023-03-10T08:01:22.092Z,10.50
2023-03-10T08:03:50.004Z,10.50
2023-03-10T08:06:23.335Z,10.50
2023-03-10T08:08:50.874Z,10.50
2023-03-10T08:11:18.516Z,10.50
2023-03-10T08:13:47.395Z,10.50
2023-03-10T08:16:15.599Z,10.50
2023-03-10T08:18:42.429Z,10.40
2023-03-10T08:21:09.696Z,10.40
2023-03-10T08:23:37.932Z,10.40
2023-03-10T08:26:08.062Z,10.50
2023-03-10T08:28:37.483Z,10.50
2023-03-10T08:31:21.609Z,10.60
2023-03-10T08:33:49.061Z,10.70
2023-03-10T08:36:21.394Z,10.70
2023-03-10T08:38:50.147Z,10.70
2023-03-10T08:41:22.771Z,10.60
2023-03-10T08:43:51.282Z,10.60
2023-03-10T08:46:19.739Z,10.60
2023-03-10T08:48:47.132Z,10.60
2023-03-10T08:51:16.011Z,10.60
2023-03-10T08:53:44.647Z,10.60
2023-03-10T08:56:11.338Z,10.70
2023-03-10T08:58:38.529Z,10.70
2023-03-10T09:01:05.726Z,10.70
2023-03-10T09:03:35.799Z,10.70
2023-03-10T09:06:03.707Z,10.70
2023-03-10T09:08:30.519Z,10.90
2023-03-10T09:10:57.294Z,11.00
2023-03-10T09:13:24.497Z,11.20
2023-03-10T09:15:52.929Z,11.40
2023-03-10T09:18:20.172Z,11.20
2023-03-10T09:20:47.105Z,11.20
2023-03-10T09:23:15.083Z,11.10
2023-03-10T09:25:42.321Z,11.00
2023-03-10T09:28:10.534Z,10.90
2023-03-10T09:30:39.401Z,10.90
2023-03-10T09:33:08.656Z,10.90
2023-03-10T09:35:39.386Z,10.80
2023-03-10T09:38:08.818Z,10.70
2023-03-10T09:40:37.371Z,10.50
2023-03-10T09:43:14.472Z,10.60
2023-03-10T09:46:04.913Z,10.50
2023-03-10T09:48:43.509Z,10.50
2023-03-10T09:51:23.747Z,10.40
2023-03-10T09:54:09.066Z,10.30
2023-03-10T09:56:36.671Z,10.40
2023-03-10T09:59:37.650Z,10.30
2023-03-10T10:02:23.882Z,10.20
2023-03-10T10:04:55.339Z,10.20
2023-03-10T10:07:26.930Z,10.20
2023-03-10T10:10:19.901Z,10.20
2023-03-10T10:12:52.511Z,10.20
2023-03-10T10:15:22.540Z,10.30
2023-03-10T10:18:18.401Z,10.40
2023-03-10T10:20:49.866Z,10.30
2023-03-10T10:23:40.832Z,10.50
2023-03-10T10:26:13.638Z,10.70
2023-03-10T10:28:50.408Z,10.70
2023-03-10T10:31:24.953Z,10.70
2023-03-10T10:34:05.538Z,10.90
2023-03-10T10:36:46.708Z,11.00
2023-03-10T10:39:42.639Z,11.00
2023-03-10T10:42:24.143Z,10.90
2023-03-10T10:45:24.641Z,10.80
2023-03-10T10:47:52.598Z,10.70
2023-03-10T10:50:34.452Z,10.70
2023-03-10T10:53:16.370Z,10.60
2023-03-10T10:55:45.649Z,10.70
2023-03-10T10:58:37.024Z,10.80
2023-03-10T11:01:14.951Z,10.60
2023-03-10T11:03:44.331Z,10.70
2023-03-10T11:06:29.484Z,10.70
2023-03-10T11:09:04.416Z,10.80
2023-03-10T11:11:31.142Z,11.00
2023-03-10T11:14:40.014Z,10.90
2023-03-10T11:17:10.847Z,10.80
2023-03-10T11:20:07.961Z,10.90
2023-03-10T11:22:38.163Z,10.90
2023-03-10T11:25:30.358Z,11.00
2023-03-10T11:28:11.783Z,10.80
2023-03-10T11:30:49.232Z,10.80
2023-03-10T11:33:26.675Z,10.70
2023-03-10T11:36:05.641Z,10.60
2023-03-10T11:38:40.550Z,10.60
2023-03-10T11:41:15.987Z,10.50
2023-03-10T11:44:00.827Z,10.50
2023-03-10T11:46:36.484Z,10.40
2023-03-10T11:49:12.308Z,10.40
2023-03-10T11:51:53.168Z,10.40
2023-03-10T11:54:26.358Z,10.30
2023-03-10T11:56:54.110Z,10.40
2023-03-10T11:59:25.926Z,10.30
2023-03-10T12:02:11.776Z,10.10
2023-03-10T12:05:21.671Z,10.20
2023-03-10T12:07:52.250Z,10.10
2023-03-10T12:10:21.864Z,10.20
2023-03-10T12:12:50.718Z,10.20
2023-03-10T12:15:31.204Z,10.30
2023-03-10T12:17:58.227Z,10.30
2023-03-10T12:20:31.437Z,10.30
2023-03-10T12:23:00.719Z,10.30
2023-03-10T12:25:30.469Z,10.30
2023-03-10T12:28:15.859Z,10.20
2023-03-10T12:30:58.618Z,10.30
2023-03-10T12:33:31.770Z,10.30
2023-03-10T12:36:13.237Z,10.40
2023-03-10T12:38:47.598Z,10.30
2023-03-10T12:41:26.500Z,10.40
2023-03-10T12:44:16.777Z,10.50
2023-03-10T12:46:48.837Z,10.40
2023-03-10T12:49:36.722Z,10.50
2023-03-10T12:52:21.964Z,10.40
2023-03-10T12:54:57.143Z,10.40
2023-03-10T12:57:48.205Z,10.30
2023-03-10T13:00:41.398Z,10.30
2023-03-10T13:03:19.513Z,10.30
2023-03-10T13:06:22.112Z,10.30
2023-03-10T13:08:59.288Z,10.30
2023-03-10T13:11:37.882Z,10.40
2023-03-10T13:14:14.381Z,10.40
2023-03-10T13:16:42.437Z,10.40
2023-03-10T13:19:20.619Z,10.30
2023-03-10T13:21:49.511Z,10.40
2023-03-10T13:24:38.466Z,10.40
2023-03-10T13:27:17.234Z,10.40
2023-03-10T13:30:01.829Z,10.40
2023-03-10T13:32:29.760Z,10.40
2023-03-10T13:34:57.667Z,10.40
2023-03-10T13:37:24.969Z,10.40
2023-03-10T13:39:51.758Z,10.30
2023-03-10T13:42:40.787Z,10.30
2023-03-10T13:45:21.609Z,10.20
2023-03-10T13:47:48.484Z,10.20
2023-03-10T13:50:16.943Z,10.20
2023-03-10T13:52:57.220Z,10.20
2023-03-10T13:55:24.385Z,10.10
2023-03-10T13:57:51.818Z,10.10
2023-03-10T14:00:21.662Z,10.10
2023-03-10T14:02:50.656Z,10.10
2023-03-10T14:05:45.532Z,10.10
2023-03-10T14:08:23.335Z,10.10
2023-03-10T14:10:50.074Z,10.10
2023-03-10T14:13:39.710Z,10.10
2023-03-10T14:16:06.824Z,10.00
2023-03-10T14:18:41.456Z,10.00
2023-03-10T14:21:34.155Z,10.00
2023-03-10T14:24:06.680Z,9.90
2023-03-10T14:26:34.173Z,9.90
2023-03-10T14:29:02.781Z,9.90
2023-03-10T14:31:29.518Z,9.80
2023-03-10T14:33:56.603Z,9.80
2023-03-10T14:36:24.934Z,9.70
2023-03-10T14:38:51.727Z,9.60
2023-03-10T14:41:20.844Z,9.60
2023-03-10T14:43:47.533Z,9.50
2023-03-10T14:46:14.317Z,9.60
2023-03-10T14:48:41.941Z,9.50
2023-03-10T14:51:19.895Z,9.40
2023-03-10T14:53:49.322Z,9.40
2023-03-10T14:56:20.435Z,9.40
2023-03-10T14:58:50.532Z,9.40
2023-03-10T15:01:19.254Z,9.40
2023-03-10T15:03:46.369Z,9.30
2023-03-10T15:06:14.482Z,9.30
2023-03-10T15:08:41.148Z,9.30
2023-03-10T15:11:08.939Z,9.20
2023-03-10T15:13:37.899Z,9.30
2023-03-10T15:16:05.959Z,9.30
2023-03-10T15:18:33.378Z,9.20
2023-03-10T15:21:01.350Z,9.20
2023-03-10T15:23:29.486Z,9.20
2023-03-10T15:25:56.963Z,9.80
2023-03-10T15:28:23.810Z,9.40
2023-03-10T15:30:51.046Z,9.30
2023-03-10T15:33:17.758Z,9.30
2023-03-10T15:35:44.727Z,9.20
2023-03-10T15:38:14.596Z,9.30
2023-03-10T15:40:41.574Z,9.30
2023-03-10T15:43:08.768Z,9.30
2023-03-10T15:45:42.564Z,9.40
2023-03-10T15:48:10.451Z,9.30
2023-03-10T15:50:37.235Z,9.30
2023-03-10T15:53:03.975Z,9.20
2023-03-10T15:55:30.690Z,9.20
2023-03-10T15:57:57.717Z,9.20
2023-03-10T16:00:25.856Z,9.10
2023-03-10T16:02:52.941Z,9.10
2023-03-10T16:05:19.777Z,9.10
2023-03-10T16:07:47.121Z,9.00
2023-03-10T16:10:17.298Z,9.00
2023-03-10T16:12:43.968Z,9.00
2023-03-10T16:15:11.199Z,9.00
2023-03-10T16:17:38.014Z,8.90
2023-03-10T16:20:12.098Z,8.90
2023-03-10T16:22:42.942Z,8.90
2023-03-10T16:25:15.337Z,8.80
2023-03-10T16:27:43.378Z,8.80
2023-03-10T16:30:11.212Z,8.70
2023-03-10T16:32:38.024Z,8.70
2023-03-10T16:35:05.368Z,8.60
2023-03-10T16:37:32.100Z,8.50
2023-03-10T16:39:58.758Z,8.50
2023-03-10T16:42:28.669Z,8.50
2023-03-10T16:44:56.584Z,8.40
2023-03-10T16:47:23.571Z,8.40
2023-03-10T16:49:50.307Z,8.30
2023-03-10T16:52:16.973Z,8.30
2023-03-10T16:54:45.877Z,8.30
2023-03-10T16:57:13.019Z,8.30
2023-03-10T16:59:41.023Z,8.20
2023-03-10T17:02:15.128Z,8.10
2023-03-10T17:04:42.108Z,7.90
2023-03-10T17:07:08.801Z,8.00
2023-03-10T17:09:36.563Z,7.90
2023-03-10T17:12:03.842Z,7.90
2023-03-10T17:14:30.581Z,7.90
2023-03-10T17:16:57.323Z,7.80
2023-03-10T17:19:28.726Z,7.80
2023-03-10T17:21:56.787Z,7.90
2023-03-10T17:24:23.636Z,7.80
2023-03-10T17:26:50.524Z,7.70
2023-03-10T17:29:17.424Z,7.80
2023-03-10T17:31:48.666Z,7.80
2023-03-10T17:34:15.920Z,7.70
2023-03-10T17:36:42.634Z,7.70
2023-03-10T17:39:15.539Z,7.70
2023-03-10T17:41:42.328Z,7.70
2023-03-10T17:44:08.931Z,7.70
2023-03-10T17:46:35.603Z,7.80
2023-03-10T17:49:02.769Z,7.70
2023-03-10T17:51:30.935Z,7.70
2023-03-10T17:53:59.367Z,7.70
2023-03-10T17:56:26.460Z,7.70
2023-03-10T17:58:54.177Z,7.70
2023-03-10T18:01:27.315Z,7.70
2023-03-10T18:03:56.074Z,7.70
2023-03-10T18:06:25.015Z,7.70
2023-03-10T18:08:53.706Z,7.70
2023-03-10T18:11:22.263Z,7.70
2023-03-10T18:13:49.158Z,7.70
2023-03-10T18:16:19.449Z,7.70
2023-03-10T18:18:46.706Z,7.70
2023-03-10T18:21:16.708Z,7.70
2023-03-10T18:23:43.985Z,7.70
2023-03-10T18:26:13.424Z,7.60
2023-03-10T18:28:40.839Z,7.60
2023-03-10T18:31:22.165Z,7.60
2023-03-10T18:33:49.071Z,7.60
2023-03-10T18:36:17.661Z,7.50
2023-03-10T18:38:45.339Z,7.40
2023-03-10T18:41:12.233Z,7.40
2023-03-10T18:43:38.927Z,7.40
2023-03-10T18:46:05.708Z,7.30
2023-03-10T18:48:32.376Z,7.20
2023-03-10T18:50:59.738Z,7.10
2023-03-10T18:53:27.516Z,7.20
2023-03-10T18:55:54.928Z,7.20
2023-03-10T18:58:22.664Z,7.20
2023-03-10T19:00:49.959Z,7.20
2023-03-10T19:03:17.377Z,7.20
2023-03-10T19:05:44.280Z,7.20
2023-03-10T19:08:11.889Z,7.20
2023-03-10T19:10:39.471Z,7.20
2023-03-10T19:13:07.357Z,7.20
2023-03-10T19:15:34.434Z,7.20
2023-03-10T19:18:01.082Z,7.20
2023-03-10T19:20:27.806Z,7.20
2023-03-10T19:22:54.584Z,7.10
2023-03-10T19:25:23.127Z,7.10
2023-03-10T19:27:49.781Z,7.10
2023-03-10T19:30:20.057Z,7.10
2023-03-10T19:32:47.456Z,7.00
2023-03-10T19:35:15.299Z,7.00
2023-03-10T19:37:43.473Z,6.90
2023-03-10T19:40:15.077Z,6.60
2023-03-10T19:42:43.187Z,6.30
2023-03-10T19:45:12.495Z,6.10
2023-03-10T19:47:39.623Z,6.10
2023-03-10T19:50:06.678Z,6.00
2023-03-10T19:52:33.419Z,5.90
2023-03-10T19:55:00.173Z,5.90
2023-03-10T19:57:27.028Z,5.80
2023-03-10T19:59:53.637Z,5.70
2023-03-10T20:02:20.325Z,5.50
2023-03-10T20:04:49.005Z,5.20
2023-03-10T20:07:15.910Z,5.00
2023-03-10T20:09:42.513Z,5.00
2023-03-10T20:12:09.210Z,4.90
2023-03-10T20:14:35.901Z,5.00
2023-03-10T20:17:02.568Z,5.00
2023-03-10T20:19:29.247Z,5.10
2023-03-10T20:21:56.112Z,5.00
2023-03-10T20:24:22.996Z,4.90
2023-03-10T20:26:49.692Z,4.80
2023-03-10T20:29:16.604Z,4.80
2023-03-10T20:31:43.513Z,4.70
2023-03-10T20:34:17.366Z,4.60
2023-03-10T20:36:44.542Z,4.60
2023-03-10T20:39:11.828Z,4.70
2023-03-10T20:41:38.707Z,4.70
2023-03-10T20:44:09.542Z,4.70
2023-03-10T20:46:36.272Z,4.60
2023-03-10T20:49:02.895Z,4.60
2023-03-10T20:51:29.500Z,4.50
2023-03-10T20:53:56.874Z,4.30
2023-03-10T20:56:23.536Z,4.20
2023-03-10T20:58:50.233Z,4.10
2023-03-10T21:01:19.452Z,4.00
2023-03-10T21:03:46.871Z,4.00
2023-03-10T21:06:13.638Z,3.90
2023-03-10T21:08:40.249Z,3.90
2023-03-10T21:11:06.857Z,3.90
2023-03-10T21:13:33.476Z,3.80
2023-03-10T21:16:00.119Z,3.80
2023-03-10T21:18:26.925Z,3.80
2023-03-10T21:20:53.662Z,3.80
2023-03-10T21:23:20.271Z,3.80
2023-03-10T21:25:46.907Z,3.90
2023-03-10T21:28:14.858Z,3.70
2023-03-10T21:30:42.214Z,3.70
2023-03-10T21:33:08.927Z,3.60
2023-03-10T21:35:38.523Z,3.70
2023-03-10T21:38:05.300Z,3.70
2023-03-10T21:40:32.014Z,3.60
2023-03-10T21:43:00.234Z,3.50
2023-03-10T21:45:28.903Z,3.50
2023-03-10T21:47:55.589Z,3.30
2023-03-10T21:50:22.812Z,3.40
2023-03-10T21:52:49.585Z,3.40
2023-03-10T21:55:20.495Z,3.40
2023-03-10T21:57:47.930Z,3.30
2023-03-10T22:00:15.422Z,3.40
2023-03-10T22:02:42.289Z,3.40
2023-03-10T22:05:14.691Z,3.40
2023-03-10T22:07:42.095Z,3.30
2023-03-10T22:10:10.171Z,3.40
2023-03-10T22:12:37.148Z,3.30
2023-03-10T22:15:05.879Z,3.30
2023-03-10T22:17:33.128Z,3.30
2023-03-10T22:20:00.933Z,3.30
2023-03-10T22:22:27.564Z,3.30
2023-03-10T22:24:54.222Z,3.30
2023-03-10T22:27:21.108Z,3.30
2023-03-10T22:29:48.154Z,3.30
2023-03-10T22:32:15.280Z,3.40
2023-03-10T22:34:42.361Z,3.30
2023-03-10T22:37:10.281Z,3.30
2023-03-10T22:39:38.420Z,3.20
2023-03-10T22:42:05.498Z,3.30
2023-03-10T22:44:36.547Z,3.30
2023-03-10T22:47:03.900Z,3.30
2023-03-10T22:49:30.680Z,3.30
2023-03-10T22:51:57.766Z,3.20
2023-03-10T22:54:25.223Z,3.20
2023-03-10T22:56:51.913Z,3.20
2023-03-10T22:59:18.565Z,3.20
2023-03-10T23:01:45.460Z,3.20
2023-03-10T23:04:12.177Z,3.20
2023-03-10T23:06:38.864Z,3.10
2023-03-10T23:09:06.874Z,3.20
2023-03-10T23:11:34.882Z,3.20
2023-03-10T23:14:03.728Z,3.20
2023-03-10T23:16:36.577Z,3.20
2023-03-10T23:19:07.966Z,3.10
2023-03-10T23:21:36.245Z,3.10
2023-03-10T23:24:02.917Z,3.10
2023-03-10T23:26:30.149Z,3.10
2023-03-10T23:28:57.263Z,3.00
2023-03-10T23:31:24.342Z,3.10
2023-03-10T23:33:51.539Z,3.10
2023-03-10T23:36:18.553Z,3.10
2023-03-10T23:38:45.217Z,3.20
2023-03-10T23:41:12.084Z,3.10
2023-03-10T23:43:39.017Z,3.00
2023-03-10T23:46:07.695Z,3.10
2023-03-10T23:48:35.308Z,3.10
2023-03-10T23:51:02.862Z,3.10
2023-03-10T23:53:29.556Z,3.10
2023-03-10T23:56:00.330Z,3.10
2023-03-10T23:58:28.124Z,3.20
